General Aviation Weather

Text Reports

Enter one or more of the following location identifiers separated by a space:

Zip Code, Four-Character ICAO or Three-Character IATA airport codes.

METAR - Aviation Routine Weather Report
LGMT - Mytilini,
Updated at 3:20 AM GMT on July 04, 2015 (6:20 AM EEST):
METAR LGMT 040320Z /////KT CAVOK 22/15 Q1018
TAF - Terminal Area Forecast
LGMT - Mytilini,
Updated at 3:20 AM GMT on July 04, 2015 (6:20 AM EEST):
TAF LGMT 040200Z 0403/0412 36015KT 9999 FEW020=
Decoded:
ID: LGMT   Mitilini, GR
REPORT TIME:  3  8: 0
VALID TIME: 3 July AT 09:00Z to 3 July AT 18:00Z.
INITIAL WX
   WINDS: 30 AT 15
   CLOUDS: 30 SCT
   COMMENTS: = 

PIREP - Pilot Weather Report
LGMT - Mytilini,
Updated at 3:20 AM GMT on July 04, 2015 (6:20 AM EEST):
No PIREP is currently available for this location.
AIRMET - Airmens Meteorological Information
LGMT - Mytilini,
Updated at 3:20 AM GMT on July 04, 2015 (6:20 AM EEST):
No AIRMET is currently available for this location.
SIGMET - Significant Meteorological Information
LGMT - Mytilini,
Updated at 3:20 AM GMT on July 04, 2015 (6:20 AM EEST):
No SIGMET is currently available for this location.
NOTAM - Notice to Airmen
LGMT - Mytilini,
Updated at 3:20 AM GMT on July 04, 2015 (6:20 AM EEST):
No NOTAM is currently available for this location.
Forecast Area
LGMT - Mytilini,
Updated at 3:20 AM GMT on July 04, 2015 (6:20 AM EEST):
No NOTAM is currently available for this location.
Aviation Weather Maps